Time;durP1;ratioP1;P1;durP2;ratioP2;P2;SDS_P1;SDS_P2;PMS_P1;PMS_P2;Temp;Humidity;BMP_temperature;BMP_pressure;BME280_temperature;BME280_humidity;BME280_pressure;Samples;Min_cycle;Max_cycle;Signal;HPM_P1;HPM_P2
2022/03/30 00:02:13;;;;;;;7.88;3.67;;;5.60;82.80;;;;;;5009080;28;20597;-44
2022/03/30 00:04:39;;;;;;;18.65;4.70;;;5.60;82.80;;;;;;5010117;28;20022;-44
2022/03/30 00:07:06;;;;;;;9.77;4.40;;;5.60;82.80;;;;;;5009758;28;20056;-44
2022/03/30 00:09:36;;;;;;;9.93;4.13;;;5.70;82.90;;;;;;5009006;28;20049;-43
2022/03/30 00:12:02;;;;;;;;;;;5.70;82.80;;;;;;5008782;28;20600;-44
2022/03/30 00:14:28;;;;;;;10.70;4.32;;;5.70;82.80;;;;;;5009690;28;19913;-45
2022/03/30 00:16:55;;;;;;;9.85;3.72;;;5.70;83.10;;;;;;4992702;28;20041;-44
2022/03/30 00:19:23;;;;;;;9.80;3.75;;;5.70;83.20;;;;;;5008932;28;20030;-44
2022/03/30 00:21:53;;;;;;;12.50;4.55;;;5.70;83.40;;;;;;5009608;28;20050;-43
2022/03/30 00:24:19;;;;;;;11.55;4.50;;;5.70;83.40;;;;;;5009898;28;20030;-44
2022/03/30 00:26:46;;;;;;;10.68;4.35;;;5.70;83.40;;;;;;5009819;28;20041;-43
2022/03/30 00:29:13;;;;;;;15.45;4.90;;;5.70;83.80;;;;;;5010169;28;20645;-43
2022/03/30 00:31:40;;;;;;;11.05;4.82;;;5.70;83.80;;;;;;5007057;28;20359;-44
2022/03/30 00:34:07;;;;;;;20.02;5.60;;;5.70;83.90;;;;;;5008648;28;20037;-43
2022/03/30 00:36:33;;;;;;;10.35;4.82;;;5.70;84.10;;;;;;5008984;28;20438;-43
2022/03/30 00:38:59;;;;;;;10.80;4.40;;;5.70;84.20;;;;;;5008621;28;20037;-47
2022/03/30 00:41:28;;;;;;;7.57;4.03;;;5.70;84.40;;;;;;5009023;28;20025;-46
2022/03/30 00:44:06;;;;;;;14.83;5.43;;;5.60;84.40;;;;;;5009721;28;20037;-47
2022/03/30 00:46:36;;;;;;;15.60;5.95;;;5.60;84.80;;;;;;4993445;28;20101;-48
2022/03/30 00:49:04;;;;;;;;;;;5.50;85.30;;;;;;5009026;28;20117;-50
2022/03/30 00:51:32;;;;;;;18.73;5.25;;;5.50;85.30;;;;;;5011597;28;19992;-49
2022/03/30 00:54:00;;;;;;;14.30;5.25;;;5.50;85.50;;;;;;5012077;28;20057;-50
2022/03/30 00:56:48;;;;;;;10.55;4.65;;;5.40;85.60;;;;;;5012793;28;20038;-49
2022/03/30 00:59:17;;;;;;;13.35;5.13;;;5.40;85.70;;;;;;5012845;28;20029;-50
2022/03/30 01:01:45;;;;;;;12.55;6.10;;;5.40;86.00;;;;;;5012361;28;20457;-49
2022/03/30 01:04:12;;;;;;;12.45;5.13;;;5.40;86.10;;;;;;5012089;28;20061;-49
2022/03/30 01:06:38;;;;;;;10.77;5.30;;;5.40;86.10;;;;;;5012765;28;20403;-52
2022/03/30 01:09:06;;;;;;;14.00;5.63;;;5.40;86.20;;;;;;5012136;28;20099;-50
2022/03/30 01:11:37;;;;;;;12.68;5.05;;;5.40;86.30;;;;;;5004892;28;20033;-50
2022/03/30 01:14:05;;;;;;;11.68;5.05;;;5.40;86.40;;;;;;5011646;28;20060;-52
2022/03/30 01:16:34;;;;;;;12.93;5.03;;;5.40;86.60;;;;;;5012519;28;20081;-55
2022/03/30 01:19:07;;;;;;;9.55;5.45;;;5.40;86.70;;;;;;5012435;28;20539;-51
2022/03/30 01:21:40;;;;;;;14.27;5.32;;;5.40;86.80;;;;;;5011370;28;20077;-50
2022/03/30 01:24:09;;;;;;;10.38;4.80;;;5.40;87.00;;;;;;5012321;28;20027;-56
2022/03/30 01:26:37;;;;;;;13.67;5.47;;;5.40;87.10;;;;;;5011852;28;20411;-54
2022/03/30 01:32:25;;;;;;;15.27;6.03;;;5.40;87.20;;;;;;4995473;28;20050;-55
2022/03/30 01:34:40;;;;;;;17.50;5.07;;;5.40;87.50;;;;;;5011050;28;20074;-52
2022/03/30 01:37:08;;;;;;;13.68;5.28;;;5.40;87.80;;;;;;5011173;28;20038;-56
2022/03/30 01:39:33;;;;;;;13.98;6.03;;;5.40;87.80;;;;;;5011342;28;20037;-53
2022/03/30 01:42:02;;;;;;;13.38;5.32;;;5.50;87.90;;;;;;5011465;28;20101;-50
2022/03/30 01:44:31;;;;;;;15.80;6.13;;;5.50;88.00;;;;;;5012096;28;20435;-54
2022/03/30 01:46:58;;;;;;;19.25;5.53;;;5.50;87.90;;;;;;5011967;28;20022;-52
2022/03/30 01:49:24;;;;;;;13.43;5.47;;;5.50;88.10;;;;;;5011338;28;20411;-55
2022/03/30 01:51:51;;;;;;;10.93;5.60;;;5.50;88.20;;;;;;5010673;28;20033;-57
2022/03/30 01:54:25;;;;;;;14.88;5.47;;;5.50;88.20;;;;;;5012144;28;20025;-55
2022/03/30 01:56:56;;;;;;;14.52;6.72;;;5.50;88.30;;;;;;5011098;28;20042;-55
2022/03/30 01:59:26;;;;;;;16.02;5.65;;;5.60;88.40;;;;;;4995140;28;20850;-52
2022/03/30 02:01:53;;;;;;;13.90;5.63;;;5.60;88.50;;;;;;5010075;28;20054;-51
2022/03/30 02:04:20;;;;;;;12.43;5.45;;;5.60;88.80;;;;;;5011019;28;20030;-51
2022/03/30 02:06:49;;;;;;;8.25;4.55;;;5.50;88.80;;;;;;5010851;28;20076;-54
2022/03/30 02:09:20;;;;;;;14.48;6.18;;;5.60;88.90;;;;;;5010713;28;20546;-57
2022/03/30 02:11:50;;;;;;;13.75;5.25;;;5.60;88.90;;;;;;5011646;28;20355;-59
2022/03/30 02:14:17;;;;;;;14.05;5.88;;;5.60;88.90;;;;;;5011189;28;20113;-60
2022/03/30 02:16:45;;;;;;;13.45;5.57;;;5.50;89.00;;;;;;5011749;28;20022;-58
2022/03/30 02:19:15;;;;;;;14.23;5.88;;;5.50;89.10;;;;;;5010674;28;20104;-61
2022/03/30 02:21:42;;;;;;;12.65;4.10;;;5.50;89.20;;;;;;5010474;28;20061;-60
2022/03/30 02:24:13;;;;;;;8.75;3.17;;;5.40;89.30;;;;;;5010573;28;20041;-60
2022/03/30 02:26:41;;;;;;;6.18;3.08;;;5.40;89.40;;;;;;5011094;28;20033;-58
2022/03/30 02:29:08;;;;;;;8.20;2.30;;;5.40;89.60;;;;;;5011155;28;20053;-59
2022/03/30 02:31:35;;;;;;;2.78;1.10;;;5.40;89.50;;;;;;5009902;28;20499;-60
2022/03/30 02:34:03;;;;;;;0.93;0.40;;;5.40;89.30;;;;;;5010591;28;20022;-57
2022/03/30 02:36:31;;;;;;;4.20;1.52;;;5.30;89.30;;;;;;5010901;28;20026;-58
2022/03/30 02:38:59;;;;;;;3.63;0.50;;;5.30;89.10;;;;;;5010953;28;20451;-59
2022/03/30 02:41:24;;;;;;;0.80;0.30;;;5.20;89.10;;;;;;5009677;28;20034;-58
2022/03/30 02:43:53;;;;;;;1.27;0.40;;;5.10;89.20;;;;;;5010117;28;20041;-56
2022/03/30 02:46:20;;;;;;;1.25;0.50;;;5.00;89.20;;;;;;5009954;28;20034;-55
2022/03/30 02:48:48;;;;;;;0.63;0.30;;;5.10;89.20;;;;;;5010940;28;20026;-58
2022/03/30 02:51:14;;;;;;;0.57;0.35;;;5.00;89.20;;;;;;5010944;28;20057;-61
2022/03/30 02:53:41;;;;;;;0.60;0.30;;;5.00;89.10;;;;;;5010520;28;20037;-60
2022/03/30 02:56:07;;;;;;;0.28;0.28;;;4.90;89.10;;;;;;5010001;28;20118;-60
2022/03/30 02:58:34;;;;;;;0.60;0.32;;;4.90;89.00;;;;;;5010772;28;20034;-56
2022/03/30 03:00:59;;;;;;;0.20;0.20;;;4.90;88.90;;;;;;5010553;28;20025;-56
2022/03/30 03:03:26;;;;;;;0.40;0.20;;;4.90;88.80;;;;;;5010445;28;20026;-55
2022/03/30 03:06:02;;;;;;;1.52;0.30;;;4.90;88.80;;;;;;5010523;28;20026;-56
2022/03/30 03:08:29;;;;;;;2.78;0.38;;;4.90;88.80;;;;;;5010419;28;20053;-58
2022/03/30 03:10:57;;;;;;;0.20;0.20;;;4.90;88.70;;;;;;5010493;28;20030;-58
2022/03/30 03:13:25;;;;;;;0.20;0.20;;;4.80;88.50;;;;;;5009374;28;20554;-54
2022/03/30 03:15:52;;;;;;;3.20;0.30;;;4.80;88.40;;;;;;5009582;28;20036;-55
2022/03/30 03:18:19;;;;;;;0.20;0.20;;;4.80;88.30;;;;;;5009507;28;20040;-58
2022/03/30 03:20:46;;;;;;;0.68;0.20;;;4.80;88.30;;;;;;5009063;28;20113;-54
2022/03/30 03:23:13;;;;;;;0.32;0.20;;;4.80;88.30;;;;;;4977245;28;20045;-51
2022/03/30 03:25:41;;;;;;;0.40;0.30;;;4.90;88.40;;;;;;5009331;28;20029;-54
2022/03/30 03:28:09;;;;;;;1.13;0.30;;;4.90;88.50;;;;;;5009132;28;20037;-54
2022/03/30 03:30:45;;;;;;;1.00;0.50;;;4.90;88.40;;;;;;5009340;28;20530;-50
2022/03/30 03:33:13;;;;;;;0.50;0.30;;;4.90;88.50;;;;;;5010231;28;20022;-50
2022/03/30 03:35:38;;;;;;;1.95;0.30;;;4.90;88.40;;;;;;5009279;28;20030;-50
2022/03/30 03:38:07;;;;;;;0.77;0.40;;;4.90;88.50;;;;;;5008933;28;20543;-55
2022/03/30 03:40:37;;;;;;;1.65;0.40;;;4.90;88.50;;;;;;5009968;28;20038;-58
2022/03/30 03:43:05;;;;;;;1.45;0.20;;;4.90;88.50;;;;;;5010054;28;20068;-60
2022/03/30 03:45:32;;;;;;;1.00;0.20;;;4.80;88.50;;;;;;5009790;28;20030;-58
2022/03/30 03:47:59;;;;;;;0.20;0.20;;;4.80;88.60;;;;;;5010511;28;20121;-56
2022/03/30 03:50:27;;;;;;;0.20;0.20;;;4.80;88.60;;;;;;5009883;28;20547;-59
2022/03/30 03:52:59;;;;;;;0.77;0.20;;;4.80;88.50;;;;;;5010586;28;20037;-54
2022/03/30 03:55:25;;;;;;;0.65;0.20;;;4.70;88.40;;;;;;5010397;28;20029;-57
2022/03/30 03:57:52;;;;;;;0.88;0.20;;;4.70;88.30;;;;;;5009818;28;20030;-59
2022/03/30 04:00:20;;;;;;;0.68;0.30;;;4.70;88.30;;;;;;5009871;28;20058;-59
2022/03/30 04:02:47;;;;;;;1.17;0.30;;;4.70;88.30;;;;;;4992526;28;20042;-59
2022/03/30 04:05:14;;;;;;;0.30;0.20;;;4.70;88.40;;;;;;5009653;28;20018;-60
2022/03/30 04:07:42;;;;;;;0.65;0.28;;;4.70;88.30;;;;;;5008675;28;20065;-60
2022/03/30 04:10:10;;;;;;;2.25;0.60;;;4.70;88.20;;;;;;5010007;28;20471;-60
2022/03/30 04:12:49;;;;;;;0.70;0.30;;;4.70;88.30;;;;;;5007946;28;20480;-59
2022/03/30 04:15:17;;;;;;;0.65;0.40;;;4.70;88.20;;;;;;5008411;28;20360;-60
2022/03/30 04:17:57;;;;;;;1.98;0.50;;;4.60;88.20;;;;;;5009534;28;20183;-59
2022/03/30 04:20:24;;;;;;;1.00;0.40;;;4.70;88.20;;;;;;5009214;28;20088;-60
2022/03/30 04:22:52;;;;;;;2.45;0.57;;;4.70;88.10;;;;;;5009393;28;20064;-59
2022/03/30 04:25:18;;;;;;;2.08;0.60;;;4.60;87.90;;;;;;5012204;28;20080;-60
2022/03/30 04:27:52;;;;;;;1.98;0.68;;;4.60;88.20;;;;;;5012509;28;20026;-60
2022/03/30 04:30:21;;;;;;;0.40;0.30;;;4.50;88.10;;;;;;4996335;28;20096;-58
2022/03/30 04:32:50;;;;;;;4.93;0.70;;;4.60;88.10;;;;;;4996493;28;20371;-60
2022/03/30 04:35:24;;;;;;;3.85;2.47;;;4.60;88.10;;;;;;5013308;28;20466;-59
2022/03/30 04:37:54;;;;;;;2.10;0.75;;;4.50;88.10;;;;;;5013718;28;20108;-59
2022/03/30 04:40:22;;;;;;;2.63;0.60;;;4.50;88.10;;;;;;5012213;28;20042;-56
2022/03/30 04:42:49;;;;;;;2.47;0.60;;;4.50;88.20;;;;;;5012145;28;20272;-56
2022/03/30 04:45:16;;;;;;;1.60;0.63;;;4.50;88.10;;;;;;5013162;28;20459;-58
2022/03/30 04:47:42;;;;;;;6.40;1.00;;;4.60;88.30;;;;;;5011981;28;20041;-57
2022/03/30 04:50:13;;;;;;;4.18;0.98;;;4.60;88.30;;;;;;5012706;28;20083;-58
2022/03/30 04:52:56;;;;;;;2.35;0.50;;;4.60;88.30;;;;;;5012221;28;20045;-59
2022/03/30 04:55:26;;;;;;;3.33;0.75;;;4.60;88.20;;;;;;5011826;28;20342;-54
2022/03/30 04:57:53;;;;;;;2.03;0.50;;;4.60;88.40;;;;;;5012525;28;20048;-59
2022/03/30 05:00:21;;;;;;;2.53;0.57;;;4.50;88.20;;;;;;5011895;28;20042;-58
2022/03/30 05:02:51;;;;;;;3.85;0.50;;;4.50;88.40;;;;;;5012722;28;20030;-58
2022/03/30 05:05:17;;;;;;;0.82;0.47;;;4.50;88.50;;;;;;5012714;28;20037;-59
2022/03/30 05:07:44;;;;;;;1.00;0.47;;;4.50;88.50;;;;;;5011363;28;20336;-60
2022/03/30 05:10:13;;;;;;;1.15;0.50;;;4.40;88.20;;;;;;5011476;28;20032;-60
2022/03/30 05:12:41;;;;;;;1.20;0.40;;;4.40;88.20;;;;;;5011839;28;20057;-58
2022/03/30 05:15:10;;;;;;;1.95;0.52;;;4.40;88.20;;;;;;5012250;28;20045;-61
2022/03/30 05:17:44;;;;;;;0.90;0.50;;;4.30;88.00;;;;;;5012598;28;20038;-60
2022/03/30 05:20:14;;;;;;;1.90;0.50;;;4.30;87.80;;;;;;5011274;28;20065;-60
2022/03/30 05:22:44;;;;;;;1.52;0.65;;;4.30;87.80;;;;;;5011677;28;20042;-60
2022/03/30 05:25:15;;;;;;;3.17;0.65;;;4.30;87.80;;;;;;5011377;28;20042;-59
2022/03/30 05:27:41;;;;;;;0.95;0.63;;;4.30;87.90;;;;;;5011577;28;20134;-56
2022/03/30 05:30:11;;;;;;;1.33;0.55;;;4.20;87.60;;;;;;5012383;28;20038;-56
2022/03/30 05:32:45;;;;;;;3.78;0.80;;;4.30;87.70;;;;;;5012054;28;20034;-51
2022/03/30 05:35:14;;;;;;;2.00;0.47;;;4.30;87.70;;;;;;5011542;28;20089;-52
2022/03/30 05:37:46;;;;;;;0.73;0.32;;;4.20;87.60;;;;;;5011278;28;20100;-51
2022/03/30 05:40:13;;;;;;;2.70;0.50;;;4.20;87.90;;;;;;5011652;28;20058;-50
2022/03/30 05:42:41;;;;;;;1.05;0.50;;;4.30;88.00;;;;;;5012247;28;20025;-51
2022/03/30 05:45:08;;;;;;;1.75;0.60;;;4.40;88.10;;;;;;5011876;28;20080;-50
2022/03/30 05:47:37;;;;;;;0.60;0.30;;;4.30;87.80;;;;;;5012019;28;20072;-51
2022/03/30 05:50:03;;;;;;;0.68;0.50;;;4.30;88.00;;;;;;5011694;28;20044;-51
2022/03/30 05:52:29;;;;;;;1.38;0.50;;;4.30;88.00;;;;;;5012108;28;20359;-55
2022/03/30 05:54:57;;;;;;;1.13;0.50;;;4.30;88.00;;;;;;5012362;28;20037;-57
2022/03/30 05:57:24;;;;;;;0.57;0.50;;;4.30;87.80;;;;;;5011165;28;20038;-56
2022/03/30 05:59:51;;;;;;;1.85;0.70;;;4.30;87.80;;;;;;5011393;28;20038;-59
2022/03/30 06:02:18;;;;;;;3.42;1.80;;;4.30;88.00;;;;;;5012072;28;20037;-59
2022/03/30 06:04:53;;;;;;;6.55;4.43;;;4.30;87.90;;;;;;5011380;28;20026;-56
2022/03/30 06:07:20;;;;;;;83.97;56.42;;;4.30;87.80;;;;;;5011455;28;20064;-53
2022/03/30 06:09:47;;;;;;;13.77;8.30;;;4.30;87.80;;;;;;5011997;28;20424;-52
2022/03/30 06:12:14;;;;;;;8.32;6.32;;;4.40;88.00;;;;;;5010535;28;20026;-51
2022/03/30 06:14:41;;;;;;;17.58;12.98;;;4.40;87.90;;;;;;5010387;28;20096;-50
2022/03/30 06:17:10;;;;;;;17.20;12.05;;;4.40;87.70;;;;;;5011731;28;20112;-51
2022/03/30 06:19:48;;;;;;;;;;;4.50;87.70;;;;;;5011798;28;20079;-52
2022/03/30 06:22:15;;;;;;;8.55;5.70;;;4.50;87.80;;;;;;5011036;28;19917;-49
2022/03/30 06:24:42;;;;;;;18.90;14.65;;;4.50;87.70;;;;;;5011553;28;20113;-49
2022/03/30 06:27:11;;;;;;;4.95;2.88;;;4.50;87.60;;;;;;5010284;28;20021;-50
2022/03/30 06:29:39;;;;;;;3.15;1.92;;;4.60;87.80;;;;;;5010226;28;20367;-48
2022/03/30 06:32:07;;;;;;;3.75;1.75;;;4.60;87.50;;;;;;5010342;28;20431;-48
2022/03/30 06:34:34;;;;;;;3.38;2.30;;;4.70;87.70;;;;;;5011381;28;20057;-48
2022/03/30 06:37:05;;;;;;;7.88;1.88;;;4.70;87.10;;;;;;5010091;28;20402;-47
2022/03/30 06:39:35;;;;;;;3.03;1.52;;;4.70;87.00;;;;;;5011137;28;20062;-48
2022/03/30 06:42:04;;;;;;;4.65;1.70;;;4.70;86.70;;;;;;5011218;28;20458;-47
2022/03/30 06:44:32;;;;;;;2.72;1.00;;;4.80;87.00;;;;;;5010076;28;20514;-47
2022/03/30 06:46:58;;;;;;;7.93;2.25;;;4.80;86.80;;;;;;5009878;28;20029;-49
2022/03/30 06:49:25;;;;;;;8.57;2.25;;;4.90;87.00;;;;;;5011037;28;20374;-47
2022/03/30 06:51:52;;;;;;;1.67;0.90;;;5.00;86.80;;;;;;5011172;28;20026;-46
2022/03/30 06:54:19;;;;;;;3.75;1.27;;;5.00;86.20;;;;;;5010769;28;20075;-46
2022/03/30 06:56:49;;;;;;;2.65;0.47;;;5.00;86.40;;;;;;5010651;28;20124;-47
2022/03/30 06:59:15;;;;;;;2.40;0.75;;;4.90;86.40;;;;;;5009714;28;20083;-45
2022/03/30 07:01:41;;;;;;;1.90;0.40;;;5.00;86.40;;;;;;5010740;28;20096;-45
2022/03/30 07:04:09;;;;;;;2.92;1.23;;;5.00;86.00;;;;;;5009741;28;20030;-45
2022/03/30 07:10:14;;;;;;;2.88;0.70;;;5.10;86.00;;;;;;5010921;28;20420;-46
2022/03/30 07:12:08;;;;;;;3.03;1.25;;;5.20;85.80;;;;;;5010193;28;20053;-45
2022/03/30 07:14:37;;;;;;;1.73;0.63;;;5.20;85.70;;;;;;5009869;28;20075;-45
2022/03/30 07:17:02;;;;;;;3.42;1.00;;;5.30;85.90;;;;;;5010516;28;20156;-43
2022/03/30 07:19:28;;;;;;;2.35;0.80;;;5.40;85.70;;;;;;5010000;28;20117;-46
2022/03/30 07:21:57;;;;;;;1.45;0.63;;;5.40;85.10;;;;;;5009950;28;20069;-44
2022/03/30 07:24:24;;;;;;;2.08;0.80;;;5.50;85.40;;;;;;5010149;28;20030;-43
2022/03/30 07:26:51;;;;;;;5.95;3.08;;;5.60;85.20;;;;;;5009836;28;20022;-46
2022/03/30 07:29:19;;;;;;;3.63;1.00;;;5.50;84.20;;;;;;5010159;28;20034;-44
2022/03/30 07:31:46;;;;;;;2.13;1.25;;;5.50;84.20;;;;;;5010086;28;20475;-44
2022/03/30 07:34:15;;;;;;;2.90;1.58;;;5.50;84.40;;;;;;5010052;28;20077;-43
2022/03/30 07:36:43;;;;;;;4.45;1.92;;;5.50;84.70;;;;;;5010154;28;20448;-46
2022/03/30 07:39:09;;;;;;;2.72;1.40;;;5.50;84.80;;;;;;5008071;28;20370;-42
2022/03/30 07:41:35;;;;;;;3.03;1.75;;;5.60;84.90;;;;;;5007789;28;20030;-42
2022/03/30 07:44:01;;;;;;;3.65;1.88;;;5.60;84.30;;;;;;4992184;28;20045;-42
2022/03/30 07:46:28;;;;;;;5.35;3.00;;;5.80;84.80;;;;;;5009826;28;20030;-42
2022/03/30 07:48:54;;;;;;;3.30;2.20;;;5.90;84.80;;;;;;5009635;28;20064;-44
2022/03/30 07:51:22;;;;;;;5.13;4.05;;;5.90;84.80;;;;;;5009356;28;20041;-43
2022/03/30 07:53:50;;;;;;;4.57;3.13;;;5.90;85.10;;;;;;5009956;28;20041;-42
2022/03/30 07:56:20;;;;;;;5.13;3.28;;;5.90;85.10;;;;;;5009473;28;20097;-42
2022/03/30 07:58:48;;;;;;;;;;;5.80;84.90;;;;;;5011956;28;20038;-43
2022/03/30 08:01:29;;;;;;;2.23;0.97;;;5.80;84.90;;;;;;5014617;28;19913;-44
2022/03/30 08:03:56;;;;;;;2.90;1.00;;;5.50;84.00;;;;;;5012377;28;20269;-46
2022/03/30 08:06:23;;;;;;;2.25;0.77;;;5.40;84.20;;;;;;5013380;28;20034;-49
2022/03/30 08:08:50;;;;;;;1.88;0.60;;;4.80;83.60;;;;;;5013591;28;20042;-53
2022/03/30 08:11:19;;;;;;;2.53;0.82;;;4.40;84.50;;;;;;5014229;28;20026;-60
2022/03/30 08:13:46;;;;;;;1.73;0.57;;;4.30;84.90;;;;;;5014068;28;20121;-55
2022/03/30 08:16:13;;;;;;;3.90;0.57;;;4.30;85.70;;;;;;5013577;28;20095;-53
2022/03/30 08:18:38;;;;;;;2.25;0.75;;;4.30;85.60;;;;;;5013877;28;20026;-50
2022/03/30 08:23:50;;;;;;;3.90;0.80;;;4.40;86.60;;;;;;5014166;28;20110;-49
2022/03/30 08:26:18;;;;;;;5.18;0.80;;;4.40;86.60;;;;;;5013810;28;20041;-51
2022/03/30 08:28:44;;;;;;;4.20;1.10;;;4.50;86.80;;;;;;5013240;28;20030;-49
2022/03/30 08:31:11;;;;;;;3.40;0.80;;;4.50;86.90;;;;;;5012973;28;20053;-51
2022/03/30 08:33:39;;;;;;;2.00;1.25;;;4.70;87.10;;;;;;5013606;28;20034;-51
2022/03/30 08:36:07;;;;;;;3.53;1.35;;;4.90;87.10;;;;;;5010124;28;20386;-48
2022/03/30 08:38:34;;;;;;;3.97;1.40;;;5.00;86.50;;;;;;5013603;28;20044;-49
2022/03/30 08:41:00;;;;;;;9.07;1.92;;;5.10;86.40;;;;;;5012199;28;20073;-51
2022/03/30 08:43:27;;;;;;;2.92;1.70;;;5.30;86.40;;;;;;5013259;28;20030;-48
2022/03/30 08:45:58;;;;;;;3.75;2.08;;;5.40;86.00;;;;;;5011992;28;20034;-48
2022/03/30 08:48:24;;;;;;;4.70;2.58;;;5.40;85.60;;;;;;5012525;28;20025;-48
2022/03/30 08:50:51;;;;;;;4.50;2.22;;;5.50;85.60;;;;;;5012540;28;20415;-51
2022/03/30 08:53:21;;;;;;;3.05;1.77;;;5.60;85.40;;;;;;5012017;28;20050;-48
2022/03/30 08:55:48;;;;;;;4.22;2.33;;;5.90;85.60;;;;;;5013180;28;20040;-48
2022/03/30 08:58:14;;;;;;;3.75;2.50;;;6.00;85.10;;;;;;5013106;28;20022;-48
2022/03/30 09:00:41;;;;;;;5.05;3.35;;;6.20;84.80;;;;;;4996014;28;20104;-47
2022/03/30 09:03:07;;;;;;;5.10;2.75;;;6.20;84.40;;;;;;5011721;28;20095;-46
2022/03/30 09:05:38;;;;;;;3.63;2.50;;;6.20;83.90;;;;;;5013040;28;20109;-47
2022/03/30 09:08:25;;;;;;;2.95;1.75;;;6.20;84.10;;;;;;5011469;28;20087;-46
2022/03/30 09:10:54;;;;;;;6.20;1.77;;;5.90;83.20;;;;;;5011571;28;20107;-49
2022/03/30 09:13:22;;;;;;;4.32;1.90;;;5.90;84.30;;;;;;5011826;28;20044;-50
2022/03/30 09:15:50;;;;;;;2.70;1.58;;;5.90;84.20;;;;;;5011756;28;20029;-56
2022/03/30 09:18:18;;;;;;;2.75;1.30;;;5.80;83.70;;;;;;5011430;28;20045;-60
2022/03/30 09:20:59;;;;;;;3.90;2.00;;;5.70;83.60;;;;;;5012667;28;20056;-54
2022/03/30 09:23:27;;;;;;;8.60;2.33;;;5.90;84.40;;;;;;5012800;28;20038;-53
2022/03/30 09:25:53;;;;;;;3.90;1.80;;;5.90;83.60;;;;;;5011642;28;20416;-51
2022/03/30 09:28:23;;;;;;;2.88;1.67;;;5.90;83.70;;;;;;5012573;28;20064;-51
2022/03/30 09:30:51;;;;;;;4.45;1.98;;;6.00;83.20;;;;;;5011590;28;20120;-50
2022/03/30 09:33:20;;;;;;;3.08;2.00;;;6.00;83.10;;;;;;5011999;28;20037;-49
2022/03/30 09:35:47;;;;;;;3.30;1.80;;;5.90;83.00;;;;;;4994731;28;20038;-47
2022/03/30 09:38:21;;;;;;;4.97;1.92;;;6.10;83.30;;;;;;5010599;28;20040;-47
2022/03/30 09:41:08;;;;;;;4.85;2.15;;;6.20;83.80;;;;;;5007160;28;20421;-48
2022/03/30 09:43:40;;;;;;;5.03;2.53;;;6.00;81.60;;;;;;5011638;28;20065;-46
2022/03/30 09:46:25;;;;;;;4.32;2.78;;;6.00;81.80;;;;;;5012487;28;20034;-47
2022/03/30 09:48:56;;;;;;;4.40;1.50;;;6.00;81.10;;;;;;5011775;28;20029;-46
2022/03/30 09:51:28;;;;;;;5.78;2.15;;;6.30;81.00;;;;;;5012024;28;20477;-47
2022/03/30 09:53:56;;;;;;;4.50;1.95;;;6.40;79.90;;;;;;5010771;28;20105;-44
2022/03/30 09:56:24;;;;;;;6.13;1.98;;;6.50;79.30;;;;;;5011511;28;20032;-44
2022/03/30 09:59:00;;;;;;;4.82;2.05;;;6.60;78.40;;;;;;5010560;28;20026;-43
2022/03/30 10:01:32;;;;;;;4.38;1.63;;;6.70;77.80;;;;;;5011883;28;20038;-42
2022/03/30 10:04:04;;;;;;;5.80;1.13;;;6.80;78.70;;;;;;5012017;28;20101;-42
2022/03/30 10:06:34;;;;;;;5.10;1.77;;;6.90;77.20;;;;;;4995599;28;20026;-44
2022/03/30 10:09:03;;;;;;;2.55;1.10;;;7.00;77.00;;;;;;5011033;28;20014;-43
2022/03/30 10:11:31;;;;;;;3.97;1.25;;;7.20;75.80;;;;;;5010924;28;20033;-42
2022/03/30 10:14:06;;;;;;;6.10;2.58;;;7.10;75.80;;;;;;5011559;28;20320;-40
2022/03/30 10:16:32;;;;;;;4.15;2.40;;;7.40;76.70;;;;;;5010798;28;20034;-40
2022/03/30 10:18:58;;;;;;;5.15;2.22;;;7.80;76.30;;;;;;5010647;28;20033;-44
2022/03/30 10:22:03;;;;;;;7.53;1.98;;;8.00;75.90;;;;;;5010656;28;20054;-41
2022/03/30 10:24:48;;;;;;;7.75;3.30;;;8.80;75.20;;;;;;5010417;28;20402;-42
2022/03/30 10:27:39;;;;;;;6.70;2.67;;;8.60;71.40;;;;;;5011729;28;20021;-41
2022/03/30 10:30:11;;;;;;;4.72;1.10;;;8.70;71.80;;;;;;5011068;28;20026;-43
2022/03/30 10:32:41;;;;;;;3.60;1.20;;;8.40;67.70;;;;;;5005324;28;20045;-44
2022/03/30 10:35:12;;;;;;;4.05;1.88;;;8.20;71.10;;;;;;5010349;28;20036;-42
2022/03/30 10:37:55;;;;;;;4.35;2.03;;;8.30;72.50;;;;;;5010087;28;20383;-43
2022/03/30 10:40:28;;;;;;;3.83;1.30;;;8.20;70.70;;;;;;5010025;28;20036;-43
2022/03/30 10:43:02;;;;;;;4.70;1.60;;;8.30;69.70;;;;;;5010049;28;20038;-45
2022/03/30 10:45:49;;;;;;;7.90;1.58;;;8.50;72.30;;;;;;5010989;28;20436;-44
2022/03/30 10:48:39;;;;;;;5.93;1.63;;;8.40;70.70;;;;;;5011004;28;20051;-43
2022/03/30 10:51:23;;;;;;;7.68;2.58;;;8.50;71.50;;;;;;4997111;28;20058;-43
2022/03/30 10:53:53;;;;;;;6.28;2.42;;;8.50;70.60;;;;;;5010968;28;20030;-43
2022/03/30 10:56:37;;;;;;;6.05;2.38;;;8.40;70.90;;;;;;5010307;28;20030;-46
2022/03/30 10:59:06;;;;;;;3.00;1.73;;;8.20;71.40;;;;;;4996454;28;20039;-44
2022/03/30 11:01:34;;;;;;;3.92;1.50;;;8.30;70.50;;;;;;5010668;28;20068;-44
2022/03/30 11:04:30;;;;;;;3.47;1.25;;;8.20;70.60;;;;;;5010657;28;20025;-48
2022/03/30 11:07:01;;;;;;;3.30;1.27;;;8.10;71.40;;;;;;4991521;28;20023;-45
2022/03/30 11:09:30;;;;;;;5.53;1.92;;;8.20;71.80;;;;;;4999624;28;20092;-44
2022/03/30 11:11:59;;;;;;;5.40;1.67;;;8.20;70.80;;;;;;5011181;28;20469;-44
2022/03/30 11:14:34;;;;;;;4.07;1.58;;;8.20;71.40;;;;;;4993243;28;20100;-45
2022/03/30 11:17:04;;;;;;;2.58;0.80;;;8.00;70.30;;;;;;5010584;28;20018;-47
2022/03/30 11:19:55;;;;;;;3.97;1.35;;;7.80;72.60;;;;;;5009302;28;20062;-49
2022/03/30 11:22:44;;;;;;;3.17;0.93;;;7.40;73.80;;;;;;5009982;28;20121;-45
2022/03/30 11:25:26;;;;;;;3.20;0.90;;;7.20;75.70;;;;;;5008952;28;20026;-45
2022/03/30 11:28:12;;;;;;;2.67;1.00;;;6.90;75.40;;;;;;5011394;28;20034;-44
2022/03/30 11:30:45;;;;;;;3.92;1.77;;;6.90;75.60;;;;;;5008975;28;20128;-45
2022/03/30 11:33:26;;;;;;;4.10;1.10;;;6.70;74.50;;;;;;5009154;28;20463;-46
2022/03/30 11:35:54;;;;;;;2.42;0.82;;;6.40;75.00;;;;;;4991171;28;20030;-45
2022/03/30 11:38:41;;;;;;;3.55;1.20;;;6.30;74.90;;;;;;5000515;28;20033;-45
2022/03/30 11:41:09;;;;;;;3.13;1.05;;;6.40;75.70;;;;;;5015577;28;20033;-44
2022/03/30 11:46:28;;;;;;;3.30;1.30;;;6.80;74.40;;;;;;4990531;28;20524;-44
2022/03/30 11:49:00;;;;;;;6.18;1.80;;;6.90;74.20;;;;;;5003874;28;20074;-45
2022/03/30 11:51:27;;;;;;;4.53;1.38;;;7.10;72.90;;;;;;5009607;28;20421;-45
2022/03/30 11:54:17;;;;;;;4.55;1.48;;;7.20;73.30;;;;;;5009933;28;20029;-45
2022/03/30 11:56:42;;;;;;;;;;;7.40;72.80;;;;;;5009787;28;20440;-45
2022/03/30 11:59:09;;;;;;;3.30;1.25;;;7.50;72.70;;;;;;5010056;28;20000;-44
2022/03/30 12:01:36;;;;;;;5.18;1.75;;;7.50;70.80;;;;;;5010154;28;20049;-46
2022/03/30 12:04:07;;;;;;;9.05;1.65;;;7.50;71.10;;;;;;5009334;28;20040;-45
2022/03/30 12:06:43;;;;;;;6.60;1.85;;;7.40;71.40;;;;;;5010052;28;20049;-45
2022/03/30 12:09:25;;;;;;;5.90;2.13;;;7.40;71.90;;;;;;5008609;28;20029;-47
2022/03/30 12:11:52;;;;;;;4.28;1.40;;;7.40;72.60;;;;;;5009942;28;20040;-44
2022/03/30 12:14:34;;;;;;;6.97;1.73;;;7.40;71.40;;;;;;5007198;28;20029;-45
2022/03/30 12:17:04;;;;;;;4.25;1.80;;;7.40;72.00;;;;;;5008767;28;20025;-45
2022/03/30 12:19:31;;;;;;;3.60;1.80;;;7.30;71.50;;;;;;5008572;28;20038;-47
2022/03/30 12:22:10;;;;;;;5.07;1.80;;;7.20;71.70;;;;;;5007727;28;20070;-45
2022/03/30 12:24:39;;;;;;;4.07;1.67;;;7.30;71.70;;;;;;5009462;28;20030;-45
2022/03/30 12:27:05;;;;;;;6.05;2.20;;;7.40;71.70;;;;;;5009167;28;20022;-46
2022/03/30 12:29:34;;;;;;;5.07;1.95;;;7.40;72.00;;;;;;5008220;28;20052;-44
2022/03/30 12:32:02;;;;;;;;;;;7.40;71.70;;;;;;5009497;28;20042;-46
2022/03/30 12:34:33;;;;;;;3.95;1.90;;;7.50;71.60;;;;;;5008946;28;19913;-48
2022/03/30 12:37:06;;;;;;;6.22;1.63;;;7.50;71.60;;;;;;5008318;28;20026;-44
2022/03/30 12:39:43;;;;;;;1.77;1.10;;;7.60;70.10;;;;;;5008533;28;20104;-47
2022/03/30 12:42:29;;;;;;;5.78;2.92;;;7.70;69.80;;;;;;5009405;28;20022;-48
2022/03/30 12:45:05;;;;;;;6.60;1.73;;;8.20;69.90;;;;;;5009016;28;20064;-49
2022/03/30 12:47:51;;;;;;;5.25;2.28;;;8.60;70.60;;;;;;5011992;28;20034;-48
2022/03/30 12:50:33;;;;;;;4.93;1.83;;;8.60;68.80;;;;;;5013327;28;20526;-49
2022/03/30 12:53:17;;;;;;;8.30;2.33;;;8.70;67.90;;;;;;5012963;28;20053;-45
2022/03/30 12:55:46;;;;;;;6.32;2.15;;;8.50;67.00;;;;;;4996639;28;20064;-48
2022/03/30 12:58:20;;;;;;;6.40;2.33;;;8.30;68.30;;;;;;5012251;28;20044;-48
2022/03/30 13:01:08;;;;;;;5.30;2.20;;;8.30;68.70;;;;;;5012443;28;20441;-46
2022/03/30 13:03:37;;;;;;;5.38;2.28;;;8.20;67.30;;;;;;5012719;28;20034;-45
2022/03/30 13:06:22;;;;;;;6.13;1.93;;;8.20;67.10;;;;;;5012646;28;20041;-45
2022/03/30 13:09:12;;;;;;;7.05;1.92;;;8.40;68.00;;;;;;5013038;28;20376;-45
2022/03/30 13:11:52;;;;;;;3.88;1.55;;;8.30;67.50;;;;;;5011892;28;20044;-46
2022/03/30 13:14:20;;;;;;;4.50;2.53;;;8.00;68.30;;;;;;5011775;28;20081;-46
2022/03/30 13:17:12;;;;;;;5.38;2.45;;;8.20;68.50;;;;;;4995884;28;20037;-44
2022/03/30 13:19:39;;;;;;;3.38;1.80;;;8.40;68.20;;;;;;5012484;28;20051;-45
2022/03/30 13:22:06;;;;;;;7.10;2.10;;;8.40;65.90;;;;;;5012470;28;20370;-45
2022/03/30 13:24:33;;;;;;;2.35;1.15;;;8.20;65.20;;;;;;4995575;28;20483;-46
2022/03/30 13:27:15;;;;;;;4.15;1.75;;;8.20;65.80;;;;;;5011635;28;20068;-44